Terminal Aerodrome Forecast
Issued by NWS

Home | Current Version | Previous Version | Text Only | Print | Product List | Glossary On
Versions: 1 2 3 4 5 6 7 8 9 10 11 12 13 14 15
000
FTUS45 KRIW 221700
TAFBPI
TAF
KBPI 221720Z 2218/2318 VRB03KT P6SM FEW250
     FM222100 VRB04KT P6SM SCT120 BKN250
     FM230100 34007KT P6SM SCT120 BKN200
     FM230900 34006KT P6SM SCT080 BKN120=

USA.gov is the U.S. government's official web portal to all federal, state and local government web resources and services.